sensor_id;sensor_type;location;lat;lon;timestamp;temperature;humidity
77865;DHT22;67061;48.524;9.040;2023-07-29T00:01:11;15.50;99.90
77865;DHT22;67061;48.524;9.040;2023-07-29T00:03:38;15.50;99.90
77865;DHT22;67061;48.524;9.040;2023-07-29T00:06:05;15.50;99.90
77865;DHT22;67061;48.524;9.040;2023-07-29T00:08:32;15.50;99.90
77865;DHT22;67061;48.524;9.040;2023-07-29T00:10:59;15.50;99.90
77865;DHT22;67061;48.524;9.040;2023-07-29T00:13:27;15.50;99.90
77865;DHT22;67061;48.524;9.040;2023-07-29T00:15:55;15.40;99.90
77865;DHT22;67061;48.524;9.040;2023-07-29T00:18:22;15.40;99.90
77865;DHT22;67061;48.524;9.040;2023-07-29T00:20:49;15.40;99.90
77865;DHT22;67061;48.524;9.040;2023-07-29T00:23:17;15.40;99.90
77865;DHT22;67061;48.524;9.040;2023-07-29T00:25:45;15.40;99.90
77865;DHT22;67061;48.524;9.040;2023-07-29T00:28:12;15.40;99.90
77865;DHT22;67061;48.524;9.040;2023-07-29T00:30:40;15.40;99.90
77865;DHT22;67061;48.524;9.040;2023-07-29T00:33:07;15.50;99.90
77865;DHT22;67061;48.524;9.040;2023-07-29T00:35:34;15.40;99.90
77865;DHT22;67061;48.524;9.040;2023-07-29T00:38:01;15.40;99.90
77865;DHT22;67061;48.524;9.040;2023-07-29T00:40:29;15.50;99.90
77865;DHT22;67061;48.524;9.040;2023-07-29T00:42:56;15.50;99.90
77865;DHT22;67061;48.524;9.040;2023-07-29T00:45:24;15.50;99.90
77865;DHT22;67061;48.524;9.040;2023-07-29T00:47:52;15.50;99.90
77865;DHT22;67061;48.524;9.040;2023-07-29T00:50:20;15.50;99.90
77865;DHT22;67061;48.524;9.040;2023-07-29T00:52:48;15.50;99.90
77865;DHT22;67061;48.524;9.040;2023-07-29T00:55:16;15.40;99.90
77865;DHT22;67061;48.524;9.040;2023-07-29T00:57:43;15.40;99.90
77865;DHT22;67061;48.524;9.040;2023-07-29T01:00:14;15.40;99.90
77865;DHT22;67061;48.524;9.040;2023-07-29T01:02:41;15.30;99.90
77865;DHT22;67061;48.524;9.040;2023-07-29T01:05:12;15.30;99.90
77865;DHT22;67061;48.524;9.040;2023-07-29T01:07:46;15.30;99.90
77865;DHT22;67061;48.524;9.040;2023-07-29T01:10:19;15.30;99.90
77865;DHT22;67061;48.524;9.040;2023-07-29T01:12:51;15.30;99.90
77865;DHT22;67061;48.524;9.040;2023-07-29T01:15:25;15.30;99.90
77865;DHT22;67061;48.524;9.040;2023-07-29T01:17:55;15.30;99.90
77865;DHT22;67061;48.524;9.040;2023-07-29T01:20:27;15.30;99.90
77865;DHT22;67061;48.524;9.040;2023-07-29T01:22:54;15.30;99.90
77865;DHT22;67061;48.524;9.040;2023-07-29T01:25:23;15.30;99.90
77865;DHT22;67061;48.524;9.040;2023-07-29T01:27:50;15.30;99.90
77865;DHT22;67061;48.524;9.040;2023-07-29T01:30:18;15.30;99.90
77865;DHT22;67061;48.524;9.040;2023-07-29T01:32:50;15.30;99.90
77865;DHT22;67061;48.524;9.040;2023-07-29T01:35:23;15.30;99.90
77865;DHT22;67061;48.524;9.040;2023-07-29T01:37:53;15.30;99.90
77865;DHT22;67061;48.524;9.040;2023-07-29T01:40:26;15.30;99.90
77865;DHT22;67061;48.524;9.040;2023-07-29T01:42:54;15.30;99.90
77865;DHT22;67061;48.524;9.040;2023-07-29T01:45:23;15.30;99.90
77865;DHT22;67061;48.524;9.040;2023-07-29T01:47:51;15.30;99.90
77865;DHT22;67061;48.524;9.040;2023-07-29T01:50:18;15.30;99.90
77865;DHT22;67061;48.524;9.040;2023-07-29T01:52:45;15.20;99.90
77865;DHT22;67061;48.524;9.040;2023-07-29T01:55:12;15.20;99.90
77865;DHT22;67061;48.524;9.040;2023-07-29T01:57:40;15.20;99.90
77865;DHT22;67061;48.524;9.040;2023-07-29T02:00:08;15.20;99.90
77865;DHT22;67061;48.524;9.040;2023-07-29T02:02:35;15.20;99.90
77865;DHT22;67061;48.524;9.040;2023-07-29T02:05:01;15.10;99.90
77865;DHT22;67061;48.524;9.040;2023-07-29T02:07:29;15.10;99.90
77865;DHT22;67061;48.524;9.040;2023-07-29T02:09:55;15.00;99.90
77865;DHT22;67061;48.524;9.040;2023-07-29T02:12:22;15.00;99.90
77865;DHT22;67061;48.524;9.040;2023-07-29T02:14:50;15.00;99.90
77865;DHT22;67061;48.524;9.040;2023-07-29T02:17:17;15.00;99.90
77865;DHT22;67061;48.524;9.040;2023-07-29T02:19:45;15.00;99.90
77865;DHT22;67061;48.524;9.040;2023-07-29T02:22:13;15.00;99.90
77865;DHT22;67061;48.524;9.040;2023-07-29T02:24:40;15.00;99.90
77865;DHT22;67061;48.524;9.040;2023-07-29T02:27:07;15.10;99.90
77865;DHT22;67061;48.524;9.040;2023-07-29T02:29:34;15.10;99.90
77865;DHT22;67061;48.524;9.040;2023-07-29T02:32:02;15.20;99.90
77865;DHT22;67061;48.524;9.040;2023-07-29T02:34:29;15.20;99.90
77865;DHT22;67061;48.524;9.040;2023-07-29T02:36:56;15.20;99.90
77865;DHT22;67061;48.524;9.040;2023-07-29T02:39:23;15.20;99.90
77865;DHT22;67061;48.524;9.040;2023-07-29T02:41:50;15.20;99.90
77865;DHT22;67061;48.524;9.040;2023-07-29T02:44:18;15.20;99.90
77865;DHT22;67061;48.524;9.040;2023-07-29T02:46:45;15.20;99.90
77865;DHT22;67061;48.524;9.040;2023-07-29T02:49:13;15.20;99.90
77865;DHT22;67061;48.524;9.040;2023-07-29T02:51:40;15.30;99.90
77865;DHT22;67061;48.524;9.040;2023-07-29T02:54:07;15.30;99.90
77865;DHT22;67061;48.524;9.040;2023-07-29T02:56:34;15.30;99.90
77865;DHT22;67061;48.524;9.040;2023-07-29T02:59:01;15.30;99.90
77865;DHT22;67061;48.524;9.040;2023-07-29T03:01:28;15.30;99.90
77865;DHT22;67061;48.524;9.040;2023-07-29T03:03:55;15.30;99.90
77865;DHT22;67061;48.524;9.040;2023-07-29T03:06:24;15.20;99.90
77865;DHT22;67061;48.524;9.040;2023-07-29T03:08:50;15.20;99.90
77865;DHT22;67061;48.524;9.040;2023-07-29T03:11:17;15.10;99.90
77865;DHT22;67061;48.524;9.040;2023-07-29T03:13:44;15.00;99.90
77865;DHT22;67061;48.524;9.040;2023-07-29T03:16:14;15.00;99.90
77865;DHT22;67061;48.524;9.040;2023-07-29T03:18:42;15.00;99.90
77865;DHT22;67061;48.524;9.040;2023-07-29T03:21:10;15.00;99.90
77865;DHT22;67061;48.524;9.040;2023-07-29T03:23:38;15.00;99.90
77865;DHT22;67061;48.524;9.040;2023-07-29T03:26:05;15.00;99.90
77865;DHT22;67061;48.524;9.040;2023-07-29T03:28:36;15.00;99.90
77865;DHT22;67061;48.524;9.040;2023-07-29T03:31:03;15.00;99.90
77865;DHT22;67061;48.524;9.040;2023-07-29T03:33:30;15.00;99.90
77865;DHT22;67061;48.524;9.040;2023-07-29T03:35:57;15.00;99.90
77865;DHT22;67061;48.524;9.040;2023-07-29T03:38:24;15.00;99.90
77865;DHT22;67061;48.524;9.040;2023-07-29T03:40:53;15.00;99.90
77865;DHT22;67061;48.524;9.040;2023-07-29T03:43:20;15.00;99.90
77865;DHT22;67061;48.524;9.040;2023-07-29T03:45:47;15.00;99.90
77865;DHT22;67061;48.524;9.040;2023-07-29T03:48:13;15.00;99.90
77865;DHT22;67061;48.524;9.040;2023-07-29T03:50:40;15.00;99.90
77865;DHT22;67061;48.524;9.040;2023-07-29T03:53:07;15.00;99.90
77865;DHT22;67061;48.524;9.040;2023-07-29T03:55:35;15.10;99.90
77865;DHT22;67061;48.524;9.040;2023-07-29T03:58:03;15.10;99.90
77865;DHT22;67061;48.524;9.040;2023-07-29T04:00:30;15.20;99.90
77865;DHT22;67061;48.524;9.040;2023-07-29T04:02:57;15.20;99.90
77865;DHT22;67061;48.524;9.040;2023-07-29T04:05:24;15.20;99.90
77865;DHT22;67061;48.524;9.040;2023-07-29T04:07:51;15.20;99.90
77865;DHT22;67061;48.524;9.040;2023-07-29T04:10:19;15.20;99.90
77865;DHT22;67061;48.524;9.040;2023-07-29T04:12:46;15.20;99.90
77865;DHT22;67061;48.524;9.040;2023-07-29T04:15:15;15.20;99.90
77865;DHT22;67061;48.524;9.040;2023-07-29T04:17:42;15.20;99.90
77865;DHT22;67061;48.524;9.040;2023-07-29T04:20:10;15.20;99.90
77865;DHT22;67061;48.524;9.040;2023-07-29T04:22:37;15.20;99.90
77865;DHT22;67061;48.524;9.040;2023-07-29T04:25:05;15.20;99.90
77865;DHT22;67061;48.524;9.040;2023-07-29T04:27:32;15.20;99.90
77865;DHT22;67061;48.524;9.040;2023-07-29T04:29:59;15.20;99.90
77865;DHT22;67061;48.524;9.040;2023-07-29T04:32:27;15.20;99.90
77865;DHT22;67061;48.524;9.040;2023-07-29T04:34:54;15.20;99.90
77865;DHT22;67061;48.524;9.040;2023-07-29T04:37:21;15.30;99.90
77865;DHT22;67061;48.524;9.040;2023-07-29T04:39:48;15.20;99.90
77865;DHT22;67061;48.524;9.040;2023-07-29T04:42:15;15.20;99.90
77865;DHT22;67061;48.524;9.040;2023-07-29T04:44:41;15.20;99.90
77865;DHT22;67061;48.524;9.040;2023-07-29T04:47:09;15.20;99.90
77865;DHT22;67061;48.524;9.040;2023-07-29T04:49:37;15.20;99.90
77865;DHT22;67061;48.524;9.040;2023-07-29T04:52:05;15.20;99.90
77865;DHT22;67061;48.524;9.040;2023-07-29T04:54:32;15.20;99.90
77865;DHT22;67061;48.524;9.040;2023-07-29T04:56:59;15.10;99.90
77865;DHT22;67061;48.524;9.040;2023-07-29T04:59:26;15.00;99.90
77865;DHT22;67061;48.524;9.040;2023-07-29T05:01:52;15.00;99.90
77865;DHT22;67061;48.524;9.040;2023-07-29T05:04:19;15.10;99.90
77865;DHT22;67061;48.524;9.040;2023-07-29T05:06:48;15.10;99.90
77865;DHT22;67061;48.524;9.040;2023-07-29T05:09:17;15.10;99.90
77865;DHT22;67061;48.524;9.040;2023-07-29T05:11:45;15.20;99.90
77865;DHT22;67061;48.524;9.040;2023-07-29T05:14:13;15.30;99.90
77865;DHT22;67061;48.524;9.040;2023-07-29T05:16:40;15.30;99.90
77865;DHT22;67061;48.524;9.040;2023-07-29T05:19:07;15.40;99.90
77865;DHT22;67061;48.524;9.040;2023-07-29T05:21:34;15.40;99.90
77865;DHT22;67061;48.524;9.040;2023-07-29T05:24:02;15.40;99.90
77865;DHT22;67061;48.524;9.040;2023-07-29T05:26:29;15.40;99.90
77865;DHT22;67061;48.524;9.040;2023-07-29T05:28:56;15.50;99.90
77865;DHT22;67061;48.524;9.040;2023-07-29T05:31:23;15.50;99.90
77865;DHT22;67061;48.524;9.040;2023-07-29T05:33:50;15.50;99.90
77865;DHT22;67061;48.524;9.040;2023-07-29T05:36:17;15.60;99.90
77865;DHT22;67061;48.524;9.040;2023-07-29T05:38:44;15.60;99.90
77865;DHT22;67061;48.524;9.040;2023-07-29T05:41:12;15.80;99.90
77865;DHT22;67061;48.524;9.040;2023-07-29T05:43:39;15.80;99.90
77865;DHT22;67061;48.524;9.040;2023-07-29T05:46:05;15.80;99.90
77865;DHT22;67061;48.524;9.040;2023-07-29T05:48:32;15.90;99.90
77865;DHT22;67061;48.524;9.040;2023-07-29T05:50:59;16.00;99.90
77865;DHT22;67061;48.524;9.040;2023-07-29T05:53:26;16.10;99.90
77865;DHT22;67061;48.524;9.040;2023-07-29T05:55:53;16.10;99.90
77865;DHT22;67061;48.524;9.040;2023-07-29T05:58:21;16.20;99.90
77865;DHT22;67061;48.524;9.040;2023-07-29T06:00:48;16.40;99.90
77865;DHT22;67061;48.524;9.040;2023-07-29T06:03:15;16.40;99.90
77865;DHT22;67061;48.524;9.040;2023-07-29T06:05:42;16.50;99.90
77865;DHT22;67061;48.524;9.040;2023-07-29T06:08:08;16.40;99.90
77865;DHT22;67061;48.524;9.040;2023-07-29T06:10:36;16.40;99.90
77865;DHT22;67061;48.524;9.040;2023-07-29T06:13:03;16.40;99.90
77865;DHT22;67061;48.524;9.040;2023-07-29T06:15:31;16.50;99.90
77865;DHT22;67061;48.524;9.040;2023-07-29T06:17:58;16.50;99.90
77865;DHT22;67061;48.524;9.040;2023-07-29T06:20:25;16.60;99.90
77865;DHT22;67061;48.524;9.040;2023-07-29T06:22:51;16.60;99.90
77865;DHT22;67061;48.524;9.040;2023-07-29T06:25:18;16.70;99.90
77865;DHT22;67061;48.524;9.040;2023-07-29T06:27:45;16.70;99.90
77865;DHT22;67061;48.524;9.040;2023-07-29T06:30:12;16.70;99.90
77865;DHT22;67061;48.524;9.040;2023-07-29T06:32:40;16.70;99.90
77865;DHT22;67061;48.524;9.040;2023-07-29T06:35:07;16.70;99.90
77865;DHT22;67061;48.524;9.040;2023-07-29T06:37:34;16.70;99.90
77865;DHT22;67061;48.524;9.040;2023-07-29T06:40:01;16.80;99.90
77865;DHT22;67061;48.524;9.040;2023-07-29T06:42:28;16.80;99.90
77865;DHT22;67061;48.524;9.040;2023-07-29T06:44:55;16.90;99.90
77865;DHT22;67061;48.524;9.040;2023-07-29T06:47:22;16.90;99.90
77865;DHT22;67061;48.524;9.040;2023-07-29T06:49:50;16.90;99.90
77865;DHT22;67061;48.524;9.040;2023-07-29T06:52:17;16.80;99.90
77865;DHT22;67061;48.524;9.040;2023-07-29T06:54:44;16.80;99.90
77865;DHT22;67061;48.524;9.040;2023-07-29T06:57:11;16.70;99.90
77865;DHT22;67061;48.524;9.040;2023-07-29T06:59:38;16.60;99.90
77865;DHT22;67061;48.524;9.040;2023-07-29T07:02:06;16.60;99.90
77865;DHT22;67061;48.524;9.040;2023-07-29T07:04:33;16.60;99.90
77865;DHT22;67061;48.524;9.040;2023-07-29T07:07:01;16.60;99.90
77865;DHT22;67061;48.524;9.040;2023-07-29T07:09:28;16.60;99.90
77865;DHT22;67061;48.524;9.040;2023-07-29T07:11:55;16.60;99.90
77865;DHT22;67061;48.524;9.040;2023-07-29T07:14:22;16.60;99.90
77865;DHT22;67061;48.524;9.040;2023-07-29T07:16:49;16.60;99.90
77865;DHT22;67061;48.524;9.040;2023-07-29T07:19:16;16.60;99.90
77865;DHT22;67061;48.524;9.040;2023-07-29T07:21:43;16.70;99.90
77865;DHT22;67061;48.524;9.040;2023-07-29T07:24:11;16.70;99.90
77865;DHT22;67061;48.524;9.040;2023-07-29T07:26:38;16.80;99.90
77865;DHT22;67061;48.524;9.040;2023-07-29T07:29:05;16.90;99.90
77865;DHT22;67061;48.524;9.040;2023-07-29T07:31:33;17.00;99.90
77865;DHT22;67061;48.524;9.040;2023-07-29T07:34:01;17.10;99.90
77865;DHT22;67061;48.524;9.040;2023-07-29T07:36:29;17.20;99.90
77865;DHT22;67061;48.524;9.040;2023-07-29T07:38:56;17.40;99.90
77865;DHT22;67061;48.524;9.040;2023-07-29T07:41:24;17.50;99.90
77865;DHT22;67061;48.524;9.040;2023-07-29T07:43:51;17.50;99.90
77865;DHT22;67061;48.524;9.040;2023-07-29T07:46:18;17.60;99.90
77865;DHT22;67061;48.524;9.040;2023-07-29T07:48:45;17.80;99.90
77865;DHT22;67061;48.524;9.040;2023-07-29T07:51:12;17.80;99.90
77865;DHT22;67061;48.524;9.040;2023-07-29T07:53:39;17.80;99.90
77865;DHT22;67061;48.524;9.040;2023-07-29T07:56:06;17.80;99.90
77865;DHT22;67061;48.524;9.040;2023-07-29T07:58:35;17.80;99.90
77865;DHT22;67061;48.524;9.040;2023-07-29T08:01:02;17.80;99.90
77865;DHT22;67061;48.524;9.040;2023-07-29T08:03:30;17.80;99.90
77865;DHT22;67061;48.524;9.040;2023-07-29T08:05:57;17.80;99.90
77865;DHT22;67061;48.524;9.040;2023-07-29T08:08:24;17.90;99.90
77865;DHT22;67061;48.524;9.040;2023-07-29T08:10:52;18.00;99.90
77865;DHT22;67061;48.524;9.040;2023-07-29T08:13:19;17.90;99.90
77865;DHT22;67061;48.524;9.040;2023-07-29T08:15:48;17.90;99.90
77865;DHT22;67061;48.524;9.040;2023-07-29T08:18:15;17.80;99.90
77865;DHT22;67061;48.524;9.040;2023-07-29T08:20:51;17.80;99.90
77865;DHT22;67061;48.524;9.040;2023-07-29T08:23:19;17.80;99.90
77865;DHT22;67061;48.524;9.040;2023-07-29T08:25:51;17.80;99.90
77865;DHT22;67061;48.524;9.040;2023-07-29T08:28:17;17.90;99.90
77865;DHT22;67061;48.524;9.040;2023-07-29T08:30:44;18.00;99.90
77865;DHT22;67061;48.524;9.040;2023-07-29T08:33:13;18.10;99.90
77865;DHT22;67061;48.524;9.040;2023-07-29T08:35:39;18.20;99.90
77865;DHT22;67061;48.524;9.040;2023-07-29T08:38:06;18.20;99.90
77865;DHT22;67061;48.524;9.040;2023-07-29T08:40:34;18.20;99.90
77865;DHT22;67061;48.524;9.040;2023-07-29T08:43:04;18.30;99.90
77865;DHT22;67061;48.524;9.040;2023-07-29T08:45:35;18.40;99.90
77865;DHT22;67061;48.524;9.040;2023-07-29T08:48:03;18.50;99.90
77865;DHT22;67061;48.524;9.040;2023-07-29T08:50:35;18.70;99.90
77865;DHT22;67061;48.524;9.040;2023-07-29T08:53:04;18.90;99.90
77865;DHT22;67061;48.524;9.040;2023-07-29T08:55:32;19.00;99.90
77865;DHT22;67061;48.524;9.040;2023-07-29T08:57:59;19.10;99.90
77865;DHT22;67061;48.524;9.040;2023-07-29T09:00:27;19.20;99.90
77865;DHT22;67061;48.524;9.040;2023-07-29T09:02:54;19.30;99.90
77865;DHT22;67061;48.524;9.040;2023-07-29T09:05:23;19.40;99.90
77865;DHT22;67061;48.524;9.040;2023-07-29T09:07:51;19.50;99.90
77865;DHT22;67061;48.524;9.040;2023-07-29T09:10:21;19.50;99.90
77865;DHT22;67061;48.524;9.040;2023-07-29T09:12:49;19.60;99.90
77865;DHT22;67061;48.524;9.040;2023-07-29T09:15:27;19.70;99.90
77865;DHT22;67061;48.524;9.040;2023-07-29T09:17:55;19.70;99.90
77865;DHT22;67061;48.524;9.040;2023-07-29T09:20:25;19.90;99.90
77865;DHT22;67061;48.524;9.040;2023-07-29T09:22:57;19.90;99.90
77865;DHT22;67061;48.524;9.040;2023-07-29T09:25:25;20.00;99.90
77865;DHT22;67061;48.524;9.040;2023-07-29T09:27:52;20.00;99.90
77865;DHT22;67061;48.524;9.040;2023-07-29T09:30:25;20.20;99.90
77865;DHT22;67061;48.524;9.040;2023-07-29T09:32:55;20.30;99.90
77865;DHT22;67061;48.524;9.040;2023-07-29T09:35:22;20.50;99.90
77865;DHT22;67061;48.524;9.040;2023-07-29T09:37:50;20.60;99.90
77865;DHT22;67061;48.524;9.040;2023-07-29T09:40:19;20.70;96.40
77865;DHT22;67061;48.524;9.040;2023-07-29T09:42:49;20.70;99.00
77865;DHT22;67061;48.524;9.040;2023-07-29T09:45:21;20.90;98.20
77865;DHT22;67061;48.524;9.040;2023-07-29T09:47:48;21.10;95.80
77865;DHT22;67061;48.524;9.040;2023-07-29T09:50:15;21.20;95.10
77865;DHT22;67061;48.524;9.040;2023-07-29T09:52:42;21.40;92.40
77865;DHT22;67061;48.524;9.040;2023-07-29T09:55:11;21.50;90.50
77865;DHT22;67061;48.524;9.040;2023-07-29T09:57:40;21.50;92.30
77865;DHT22;67061;48.524;9.040;2023-07-29T10:00:07;21.50;90.40
77865;DHT22;67061;48.524;9.040;2023-07-29T10:02:38;21.50;88.40
77865;DHT22;67061;48.524;9.040;2023-07-29T10:05:06;21.50;89.60
77865;DHT22;67061;48.524;9.040;2023-07-29T10:07:35;21.50;89.00
77865;DHT22;67061;48.524;9.040;2023-07-29T10:10:04;21.70;90.60
77865;DHT22;67061;48.524;9.040;2023-07-29T10:12:33;21.90;87.10
77865;DHT22;67061;48.524;9.040;2023-07-29T10:15:04;21.90;84.40
77865;DHT22;67061;48.524;9.040;2023-07-29T10:17:34;22.10;83.90
77865;DHT22;67061;48.524;9.040;2023-07-29T10:20:01;22.10;82.40
77865;DHT22;67061;48.524;9.040;2023-07-29T10:22:32;22.20;82.50
77865;DHT22;67061;48.524;9.040;2023-07-29T10:25:04;22.50;81.30
77865;DHT22;67061;48.524;9.040;2023-07-29T10:27:38;22.60;79.70
77865;DHT22;67061;48.524;9.040;2023-07-29T10:30:11;22.70;80.00
77865;DHT22;67061;48.524;9.040;2023-07-29T10:32:38;22.70;77.70
77865;DHT22;67061;48.524;9.040;2023-07-29T10:35:08;22.70;78.10
77865;DHT22;67061;48.524;9.040;2023-07-29T10:37:35;22.80;75.20
77865;DHT22;67061;48.524;9.040;2023-07-29T10:40:06;22.90;77.90
77865;DHT22;67061;48.524;9.040;2023-07-29T10:42:34;23.00;76.30
77865;DHT22;67061;48.524;9.040;2023-07-29T10:45:19;23.20;76.10
77865;DHT22;67061;48.524;9.040;2023-07-29T10:47:47;23.50;74.80
77865;DHT22;67061;48.524;9.040;2023-07-29T10:50:18;23.60;74.20
77865;DHT22;67061;48.524;9.040;2023-07-29T10:52:49;23.70;72.30
77865;DHT22;67061;48.524;9.040;2023-07-29T10:55:25;23.80;71.50
77865;DHT22;67061;48.524;9.040;2023-07-29T10:57:54;23.80;67.80
77865;DHT22;67061;48.524;9.040;2023-07-29T11:00:32;23.90;69.50
77865;DHT22;67061;48.524;9.040;2023-07-29T11:03:00;24.00;68.70
77865;DHT22;67061;48.524;9.040;2023-07-29T11:05:42;24.20;68.80
77865;DHT22;67061;48.524;9.040;2023-07-29T11:08:20;24.40;68.40
77865;DHT22;67061;48.524;9.040;2023-07-29T11:11:04;24.50;67.20
77865;DHT22;67061;48.524;9.040;2023-07-29T11:13:32;24.60;65.80
77865;DHT22;67061;48.524;9.040;2023-07-29T11:16:01;24.80;68.70
77865;DHT22;67061;48.524;9.040;2023-07-29T11:18:30;24.80;64.60
77865;DHT22;67061;48.524;9.040;2023-07-29T11:20:57;24.80;62.90
77865;DHT22;67061;48.524;9.040;2023-07-29T11:23:28;24.70;65.00
77865;DHT22;67061;48.524;9.040;2023-07-29T11:25:56;24.70;63.70
77865;DHT22;67061;48.524;9.040;2023-07-29T11:28:24;24.60;63.70
77865;DHT22;67061;48.524;9.040;2023-07-29T11:30:51;24.50;64.50
77865;DHT22;67061;48.524;9.040;2023-07-29T11:33:20;24.40;64.10
77865;DHT22;67061;48.524;9.040;2023-07-29T11:35:47;24.50;65.40
77865;DHT22;67061;48.524;9.040;2023-07-29T11:38:18;24.60;66.80
77865;DHT22;67061;48.524;9.040;2023-07-29T11:40:55;24.70;65.20
77865;DHT22;67061;48.524;9.040;2023-07-29T11:43:22;25.00;63.90
77865;DHT22;67061;48.524;9.040;2023-07-29T11:45:49;25.00;64.70
77865;DHT22;67061;48.524;9.040;2023-07-29T11:48:16;25.00;65.00
77865;DHT22;67061;48.524;9.040;2023-07-29T11:50:45;25.10;66.10
77865;DHT22;67061;48.524;9.040;2023-07-29T11:53:12;25.30;65.30
77865;DHT22;67061;48.524;9.040;2023-07-29T11:55:39;25.40;65.70
77865;DHT22;67061;48.524;9.040;2023-07-29T11:58:06;25.60;64.90
77865;DHT22;67061;48.524;9.040;2023-07-29T12:00:33;25.70;62.90
77865;DHT22;67061;48.524;9.040;2023-07-29T12:03:01;26.00;63.80
77865;DHT22;67061;48.524;9.040;2023-07-29T12:05:28;26.10;62.00
77865;DHT22;67061;48.524;9.040;2023-07-29T12:07:57;26.10;64.20
77865;DHT22;67061;48.524;9.040;2023-07-29T12:10:25;26.10;63.70
77865;DHT22;67061;48.524;9.040;2023-07-29T12:12:52;26.40;63.50
77865;DHT22;67061;48.524;9.040;2023-07-29T12:15:26;26.50;63.40
77865;DHT22;67061;48.524;9.040;2023-07-29T12:17:54;26.80;60.70
77865;DHT22;67061;48.524;9.040;2023-07-29T12:20:22;27.00;62.60
77865;DHT22;67061;48.524;9.040;2023-07-29T12:22:53;27.40;59.60
77865;DHT22;67061;48.524;9.040;2023-07-29T12:25:22;27.20;61.20
77865;DHT22;67061;48.524;9.040;2023-07-29T12:27:49;26.90;61.40
77865;DHT22;67061;48.524;9.040;2023-07-29T12:30:16;26.40;62.00
77865;DHT22;67061;48.524;9.040;2023-07-29T12:32:46;26.10;62.50
77865;DHT22;67061;48.524;9.040;2023-07-29T12:35:13;26.00;61.90
77865;DHT22;67061;48.524;9.040;2023-07-29T12:37:41;25.90;62.40
77865;DHT22;67061;48.524;9.040;2023-07-29T12:40:21;26.00;65.00
77865;DHT22;67061;48.524;9.040;2023-07-29T12:42:49;26.00;62.40
77865;DHT22;67061;48.524;9.040;2023-07-29T12:45:17;26.00;62.10
77865;DHT22;67061;48.524;9.040;2023-07-29T12:47:44;26.00;61.20
77865;DHT22;67061;48.524;9.040;2023-07-29T12:50:11;25.80;61.10
77865;DHT22;67061;48.524;9.040;2023-07-29T12:52:38;25.60;61.20
77865;DHT22;67061;48.524;9.040;2023-07-29T12:55:06;25.60;61.90
77865;DHT22;67061;48.524;9.040;2023-07-29T12:57:42;25.60;60.70
77865;DHT22;67061;48.524;9.040;2023-07-29T13:00:10;25.60;61.00
77865;DHT22;67061;48.524;9.040;2023-07-29T13:02:38;25.50;59.30
77865;DHT22;67061;48.524;9.040;2023-07-29T13:05:06;25.50;59.10
77865;DHT22;67061;48.524;9.040;2023-07-29T13:07:34;25.50;61.40
77865;DHT22;67061;48.524;9.040;2023-07-29T13:10:01;25.70;61.40
77865;DHT22;67061;48.524;9.040;2023-07-29T13:12:28;25.80;58.70
77865;DHT22;67061;48.524;9.040;2023-07-29T13:14:56;25.80;61.20
77865;DHT22;67061;48.524;9.040;2023-07-29T13:17:24;25.90;57.50
77865;DHT22;67061;48.524;9.040;2023-07-29T13:19:51;25.80;55.80
77865;DHT22;67061;48.524;9.040;2023-07-29T13:22:20;25.80;57.70
77865;DHT22;67061;48.524;9.040;2023-07-29T13:24:47;25.80;57.10
77865;DHT22;67061;48.524;9.040;2023-07-29T13:27:14;25.80;55.50
77865;DHT22;67061;48.524;9.040;2023-07-29T13:29:40;25.80;54.30
77865;DHT22;67061;48.524;9.040;2023-07-29T13:32:10;25.80;55.80
77865;DHT22;67061;48.524;9.040;2023-07-29T13:34:37;25.80;54.10
77865;DHT22;67061;48.524;9.040;2023-07-29T13:37:06;25.60;56.00
77865;DHT22;67061;48.524;9.040;2023-07-29T13:39:32;25.60;54.70
77865;DHT22;67061;48.524;9.040;2023-07-29T13:41:59;25.60;54.50
77865;DHT22;67061;48.524;9.040;2023-07-29T13:44:26;25.60;55.70
77865;DHT22;67061;48.524;9.040;2023-07-29T13:46:53;25.60;56.80
77865;DHT22;67061;48.524;9.040;2023-07-29T13:49:21;25.60;56.50
77865;DHT22;67061;48.524;9.040;2023-07-29T13:51:48;25.60;56.40
77865;DHT22;67061;48.524;9.040;2023-07-29T13:54:15;25.60;56.50
77865;DHT22;67061;48.524;9.040;2023-07-29T13:56:42;25.60;55.70
77865;DHT22;67061;48.524;9.040;2023-07-29T13:59:09;25.60;56.40
77865;DHT22;67061;48.524;9.040;2023-07-29T14:01:36;25.60;54.70
77865;DHT22;67061;48.524;9.040;2023-07-29T14:04:03;25.40;56.00
77865;DHT22;67061;48.524;9.040;2023-07-29T14:06:32;25.40;55.60
77865;DHT22;67061;48.524;9.040;2023-07-29T14:08:58;25.40;55.90
77865;DHT22;67061;48.524;9.040;2023-07-29T14:11:25;25.40;54.90
77865;DHT22;67061;48.524;9.040;2023-07-29T14:13:52;25.30;56.50
77865;DHT22;67061;48.524;9.040;2023-07-29T14:16:19;25.40;57.50
77865;DHT22;67061;48.524;9.040;2023-07-29T14:18:46;25.40;57.40
77865;DHT22;67061;48.524;9.040;2023-07-29T14:21:13;25.40;57.90
77865;DHT22;67061;48.524;9.040;2023-07-29T14:23:41;25.50;57.20
77865;DHT22;67061;48.524;9.040;2023-07-29T14:26:08;25.50;58.00
77865;DHT22;67061;48.524;9.040;2023-07-29T14:28:36;25.50;58.20
77865;DHT22;67061;48.524;9.040;2023-07-29T14:31:03;25.50;57.80
77865;DHT22;67061;48.524;9.040;2023-07-29T14:33:30;25.60;56.60
77865;DHT22;67061;48.524;9.040;2023-07-29T14:35:56;25.60;58.20
77865;DHT22;67061;48.524;9.040;2023-07-29T14:38:23;25.60;58.50
77865;DHT22;67061;48.524;9.040;2023-07-29T14:40:53;25.70;58.10
77865;DHT22;67061;48.524;9.040;2023-07-29T14:43:22;25.70;56.10
77865;DHT22;67061;48.524;9.040;2023-07-29T14:45:49;25.60;56.90
77865;DHT22;67061;48.524;9.040;2023-07-29T14:48:15;25.60;56.40
77865;DHT22;67061;48.524;9.040;2023-07-29T14:50:42;25.60;56.40
77865;DHT22;67061;48.524;9.040;2023-07-29T14:53:10;25.50;56.50
77865;DHT22;67061;48.524;9.040;2023-07-29T14:55:37;25.50;56.30
77865;DHT22;67061;48.524;9.040;2023-07-29T14:58:05;25.50;56.80
77865;DHT22;67061;48.524;9.040;2023-07-29T15:00:32;25.40;56.70
77865;DHT22;67061;48.524;9.040;2023-07-29T15:02:59;25.30;56.50
77865;DHT22;67061;48.524;9.040;2023-07-29T15:05:26;25.20;57.20
77865;DHT22;67061;48.524;9.040;2023-07-29T15:07:53;25.20;56.80
77865;DHT22;67061;48.524;9.040;2023-07-29T15:10:20;25.20;56.80
77865;DHT22;67061;48.524;9.040;2023-07-29T15:12:47;25.30;56.60
77865;DHT22;67061;48.524;9.040;2023-07-29T15:15:15;25.30;56.60
77865;DHT22;67061;48.524;9.040;2023-07-29T15:17:42;25.30;57.80
77865;DHT22;67061;48.524;9.040;2023-07-29T15:20:10;25.20;56.30
77865;DHT22;67061;48.524;9.040;2023-07-29T15:22:37;25.10;57.30
77865;DHT22;67061;48.524;9.040;2023-07-29T15:25:05;25.00;56.50
77865;DHT22;67061;48.524;9.040;2023-07-29T15:27:31;25.00;56.70
77865;DHT22;67061;48.524;9.040;2023-07-29T15:29:58;25.00;57.30
77865;DHT22;67061;48.524;9.040;2023-07-29T15:32:26;24.90;57.40
77865;DHT22;67061;48.524;9.040;2023-07-29T15:34:54;25.00;57.90